Time;durP1;ratioP1;P1;durP2;ratioP2;P2;SDS_P1;SDS_P2;PMS_P1;PMS_P2;Temp;Humidity;BMP_temperature;BMP_pressure;BME280_temperature;BME280_humidity;BME280_pressure;Samples;Min_cycle;Max_cycle;Signal;HPM_P1;HPM_P2
2022/08/23 00:01:19;;;;;;;;;;;;;;;22.68;58.60;99463.13;5053263;28;20319;-86
2022/08/23 00:03:44;;;;;;;;;;;;;;;22.74;58.74;99462.09;5056603;28;19917;-86
2022/08/23 00:06:10;;;;;;;;;;;;;;;22.74;57.95;99464.94;5057443;28;19939;-87
2022/08/23 00:08:36;;;;;;;;;;;;;;;22.68;57.82;99457.47;5055985;28;19917;-86
2022/08/23 00:11:02;;;;;;;;;;;;;;;22.63;58.25;99447.50;5056258;28;19917;-86
2022/08/23 00:13:28;;;;;;;;;;;;;;;22.66;57.84;99457.13;5057790;28;19917;-86
2022/08/23 00:15:53;;;;;;;;;;;;;;;22.67;57.61;99453.84;5056359;28;20340;-86
2022/08/23 00:18:19;;;;;;;;;;;;;;;22.68;57.67;99448.94;5055804;28;19921;-86
2022/08/23 00:20:45;;;;;;;;;;;;;;;22.61;57.68;99458.53;5056834;28;19924;-86
2022/08/23 00:23:10;;;;;;;;;;;;;;;22.63;57.51;99452.38;5056634;28;20397;-87
2022/08/23 00:25:36;;;;;;;;;;;;;;;22.57;57.74;99462.75;5055676;28;20326;-87
2022/08/23 00:28:01;;;;;;;;;;;;;;;22.59;57.41;99452.53;5055943;28;20003;-86
2022/08/23 00:30:27;;;;;;;;;;;;;;;22.51;57.26;99456.09;5056213;28;19917;-86
2022/08/23 00:32:55;;;;;;;;;;;;;;;22.48;57.46;99452.94;5072256;28;19917;-86
2022/08/23 00:35:21;;;;;;;;;;;;;;;22.54;57.42;99463.69;5055772;28;19923;-86
2022/08/23 00:37:46;;;;;;;;;;;;;;;22.41;57.43;99469.41;5056048;28;20011;-86
2022/08/23 00:40:13;;;;;;;;;;;;;;;22.38;57.62;99468.31;5056446;28;20389;-86
2022/08/23 00:48:57;;;;;;;;;;;;;;;22.45;57.30;99464.41;5056366;28;20010;-87
2022/08/23 00:51:26;;;;;;;;;;;;;;;22.45;56.93;99462.34;5055828;28;19917;-86
2022/08/23 00:53:57;;;;;;;;;;;;;;;22.52;55.53;99457.66;5056392;28;19967;-87
2022/08/23 00:56:24;;;;;;;;;;;;;;;22.45;55.73;99455.91;5056053;28;19923;-86
2022/08/23 00:58:49;;;;;;;;;;;;;;;22.47;56.01;99457.00;5065053;28;20007;-86
2022/08/23 01:01:15;;;;;;;;;;;;;;;22.40;55.91;99454.44;5058607;28;19967;-87
2022/08/23 01:03:44;;;;;;;;;;;;;;;22.41;56.24;99458.84;5058220;28;19923;-86
2022/08/23 01:06:14;;;;;;;;;;;;;;;22.27;56.48;99458.63;5058175;28;19974;-86
2022/08/23 01:08:42;;;;;;;;;;;;;;;22.18;56.44;99462.16;5076220;28;20275;-86
2022/08/23 01:11:12;;;;;;;;;;;;;;;22.18;56.64;99456.50;5076121;28;19923;-86
2022/08/23 01:13:50;;;;;;;;;;;;;;;22.20;56.90;99465.31;5057998;28;19917;-86
2022/08/23 01:16:18;;;;;;;;;;;;;;;22.20;56.98;99470.97;5076487;28;19955;-86
2022/08/23 01:18:44;;;;;;;;;;;;;;;22.26;56.67;99462.66;5058243;28;20032;-86
2022/08/23 01:21:20;;;;;;;;;;;;;;;22.25;56.55;99463.94;5075941;28;20011;-86
2022/08/23 01:23:50;;;;;;;;;;;;;;;22.18;56.54;99471.44;5057906;28;19931;-86
2022/08/23 01:26:18;;;;;;;;;;;;;;;22.19;56.19;99464.53;5076489;28;19921;-86
2022/08/23 01:28:43;;;;;;;;;;;;;;;22.20;56.16;99463.25;5076188;28;19916;-86
2022/08/23 01:31:09;;;;;;;;;;;;;;;22.23;55.64;99473.69;5058298;28;19928;-85
2022/08/23 01:33:35;;;;;;;;;;;;;;;22.28;55.91;99466.66;5075498;28;20393;-86
2022/08/23 01:36:01;;;;;;;;;;;;;;;22.27;55.76;99467.91;5057585;28;19923;-86
2022/08/23 01:38:26;;;;;;;;;;;;;;;22.32;55.20;99458.00;5058564;28;20015;-86
2022/08/23 01:40:52;;;;;;;;;;;;;;;22.31;55.14;99460.03;5057720;28;19917;-86
2022/08/23 01:43:18;;;;;;;;;;;;;;;22.29;55.37;99453.25;5075569;28;19923;-86
2022/08/23 01:45:44;;;;;;;;;;;;;;;22.22;55.64;99457.94;5057754;28;19917;-86
2022/08/23 01:48:10;;;;;;;;;;;;;;;22.18;55.83;99445.16;5075610;28;19917;-86
2022/08/23 01:50:35;;;;;;;;;;;;;;;22.22;55.73;99452.28;5074655;28;19962;-86
2022/08/23 01:53:01;;;;;;;;;;;;;;;22.28;54.93;99449.66;5057624;28;20337;-86
2022/08/23 01:55:26;;;;;;;;;;;;;;;22.31;54.60;99450.75;5057569;28;20330;-86
2022/08/23 01:57:54;;;;;;;;;;;;;;;22.29;54.70;99456.09;5073974;28;19921;-86
2022/08/23 02:00:20;;;;;;;;;;;;;;;22.26;55.29;99462.66;5057369;28;20420;-86
2022/08/23 02:02:46;;;;;;;;;;;;;;;22.25;55.28;99458.25;5057106;28;20003;-86
2022/08/23 02:05:11;;;;;;;;;;;;;;;22.30;55.12;99461.28;5057100;28;19948;-86
2022/08/23 02:07:37;;;;;;;;;;;;;;;22.26;54.96;99462.66;5073729;28;19959;-86
2022/08/23 02:10:03;;;;;;;;;;;;;;;22.20;55.10;99465.31;5057207;28;19967;-86
2022/08/23 02:12:29;;;;;;;;;;;;;;;22.20;54.94;99465.31;5057534;28;19927;-86
2022/08/23 02:14:54;;;;;;;;;;;;;;;22.17;55.33;99461.38;5075323;28;20279;-86
2022/08/23 02:17:20;;;;;;;;;;;;;;;22.14;55.88;99467.16;5075143;28;20358;-86
2022/08/23 02:19:46;;;;;;;;;;;;;;;22.14;56.16;99470.78;5075199;28;19917;-85
2022/08/23 02:22:12;;;;;;;;;;;;;;;22.10;55.88;99470.09;5074993;28;19916;-86
2022/08/23 02:24:43;;;;;;;;;;;;;;;22.04;56.50;99473.94;5056166;28;19923;-86
2022/08/23 02:27:09;;;;;;;;;;;;;;;22.00;56.82;99478.94;5056553;28;19916;-85
2022/08/23 02:29:34;;;;;;;;;;;;;;;21.96;56.88;99477.03;5074823;28;19962;-86
2022/08/23 02:32:00;;;;;;;;;;;;;;;21.85;57.19;99479.47;5073257;28;19920;-86
2022/08/23 02:34:26;;;;;;;;;;;;;;;21.80;57.55;99477.19;5056793;28;19916;-86
2022/08/23 02:36:51;;;;;;;;;;;;;;;21.78;58.10;99471.19;5074681;28;19916;-86
2022/08/23 02:39:17;;;;;;;;;;;;;;;21.88;57.72;99478.53;5074032;28;20414;-85
2022/08/23 02:41:42;;;;;;;;;;;;;;;21.93;57.20;99475.13;5056813;28;20406;-86
2022/08/23 02:44:09;;;;;;;;;;;;;;;21.90;57.14;99470.38;5056429;28;20004;-86
2022/08/23 02:46:34;;;;;;;;;;;;;;;21.90;57.37;99478.09;5056221;28;19920;-86
2022/08/23 02:49:00;;;;;;;;;;;;;;;21.92;57.92;99476.38;5056275;28;19916;-86
2022/08/23 02:51:25;;;;;;;;;;;;;;;21.89;57.73;99479.31;5056277;28;19916;-86
2022/08/23 02:53:51;;;;;;;;;;;;;;;21.77;58.19;99482.97;5056370;28;20003;-86
2022/08/23 02:56:16;;;;;;;;;;;;;;;21.74;57.42;99481.06;5073221;28;19922;-85
2022/08/23 02:58:44;;;;;;;;;;;;;;;21.71;57.44;99474.28;5073781;28;19966;-86
2022/08/23 03:01:16;;;;;;;;;;;;;;;21.62;57.53;99482.66;5056055;28;20015;-85
2022/08/23 03:03:42;;;;;;;;;;;;;;;21.53;57.21;99488.25;5056068;28;19926;-86
2022/08/23 03:06:07;;;;;;;;;;;;;;;21.50;57.42;99491.97;5056154;28;19943;-85
2022/08/23 03:08:32;;;;;;;;;;;;;;;21.43;57.39;99490.16;5056056;28;19923;-85
2022/08/23 03:11:00;;;;;;;;;;;;;;;21.45;58.15;99488.44;5074055;28;20027;-85
2022/08/23 03:13:26;;;;;;;;;;;;;;;21.53;58.46;99493.91;5073755;28;19916;-85
2022/08/23 03:15:54;;;;;;;;;;;;;;;21.58;58.39;99499.78;5073182;28;20263;-85
2022/08/23 03:18:19;;;;;;;;;;;;;;;21.79;57.48;99501.09;5074015;28;19920;-86
2022/08/23 03:20:47;;;;;;;;;;;;;;;21.79;57.46;99497.50;5073918;28;20363;-85
2022/08/23 03:23:12;;;;;;;;;;;;;;;21.84;57.19;99500.53;5073893;28;19955;-85
2022/08/23 03:25:38;;;;;;;;;;;;;;;21.79;57.28;99498.28;5056090;28;20329;-86
2022/08/23 03:28:04;;;;;;;;;;;;;;;21.83;57.37;99501.75;5056176;28;19960;-86
2022/08/23 03:30:29;;;;;;;;;;;;;;;21.74;57.63;99498.84;5056403;28;19920;-86
2022/08/23 03:32:55;;;;;;;;;;;;;;;21.71;58.09;99503.38;5056214;28;20377;-86
2022/08/23 03:35:20;;;;;;;;;;;;;;;21.73;57.50;99497.25;5056371;28;19944;-86
2022/08/23 03:37:46;;;;;;;;;;;;;;;21.78;57.68;99501.53;5076207;28;20315;-86
2022/08/23 03:40:12;;;;;;;;;;;;;;;21.79;57.92;99495.44;5059784;28;19916;-86
2022/08/23 03:42:43;;;;;;;;;;;;;;;21.82;57.78;99497.34;5060453;28;19920;-86
2022/08/23 03:45:08;;;;;;;;;;;;;;;21.68;58.67;99495.81;5060059;28;19916;-86
2022/08/23 03:47:34;;;;;;;;;;;;;;;21.76;59.05;99504.84;5059978;28;20385;-86
2022/08/23 03:49:59;;;;;;;;;;;;;;;21.65;59.04;99493.88;5060077;28;20022;-85
2022/08/23 03:52:25;;;;;;;;;;;;;;;21.59;59.45;99500.56;5059986;28;20279;-85
2022/08/23 03:54:50;;;;;;;;;;;;;;;21.46;59.99;99511.88;5059850;28;19979;-85
2022/08/23 03:57:15;;;;;;;;;;;;;;;21.36;60.15;99505.34;5077555;28;19924;-86
2022/08/23 03:59:41;;;;;;;;;;;;;;;21.33;60.23;99506.25;5055782;28;20376;-85
2022/08/23 04:02:06;;;;;;;;;;;;;;;21.31;60.44;99505.91;5057492;28;20004;-85
2022/08/23 04:04:32;;;;;;;;;;;;;;;21.27;60.71;99512.88;5056393;28;20367;-85
2022/08/23 04:06:57;;;;;;;;;;;;;;;21.27;60.47;99508.03;5056895;28;19921;-85
2022/08/23 04:09:23;;;;;;;;;;;;;;;21.25;60.46;99518.97;5056222;28;19916;-86
2022/08/23 04:11:49;;;;;;;;;;;;;;;21.29;60.11;99522.50;5057539;28;20344;-85
2022/08/23 04:14:14;;;;;;;;;;;;;;;21.32;60.38;99520.84;5057108;28;19917;-85
2022/08/23 04:16:40;;;;;;;;;;;;;;;21.30;60.58;99521.28;5057311;28;19917;-85
2022/08/23 04:19:11;;;;;;;;;;;;;;;21.37;60.26;99518.25;5055947;28;19917;-86
2022/08/23 04:21:37;;;;;;;;;;;;;;;21.44;60.56;99523.66;5057391;28;19917;-85
2022/08/23 04:24:03;;;;;;;;;;;;;;;21.38;60.62;99525.47;5057326;28;19974;-86
2022/08/23 04:26:29;;;;;;;;;;;;;;;21.45;60.02;99532.94;5056236;28;20027;-85
2022/08/23 04:28:54;;;;;;;;;;;;;;;21.44;60.10;99534.97;5056633;28;20379;-85
2022/08/23 04:31:20;;;;;;;;;;;;;;;21.61;59.09;99534.88;5056315;28;20383;-85
2022/08/23 04:33:46;;;;;;;;;;;;;;;21.62;59.00;99539.28;5055801;28;20007;-85
2022/08/23 04:36:11;;;;;;;;;;;;;;;21.63;58.30;99541.66;5055872;28;19917;-86
2022/08/23 04:38:37;;;;;;;;;;;;;;;21.61;58.19;99546.97;5055507;28;19917;-85
2022/08/23 04:43:46;;;;;;;;;;;;;;;21.74;57.95;99546.97;5056884;28;19924;-85
2022/08/23 04:46:15;;;;;;;;;;;;;;;21.96;57.66;99547.84;5056134;28;19917;-85
2022/08/23 04:48:43;;;;;;;;;;;;;;;22.47;56.10;99559.03;5056187;28;19917;-85
2022/08/23 04:51:09;;;;;;;;;;;;;;;22.94;54.40;99554.56;5056071;28;19969;-85
2022/08/23 04:53:35;;;;;;;;;;;;;;;23.14;53.91;99557.84;5056489;28;20431;-85
2022/08/23 04:56:01;;;;;;;;;;;;;;;23.45;52.97;99559.88;5072622;28;19917;-85
2022/08/23 04:58:27;;;;;;;;;;;;;;;23.83;51.60;99556.75;5062034;28;20383;-85
2022/08/23 05:00:53;;;;;;;;;;;;;;;23.81;51.34;99562.13;5076529;28;20303;-84
2022/08/23 05:03:19;;;;;;;;;;;;;;;23.56;51.45;99567.97;5076862;28;20036;-84
2022/08/23 05:05:44;;;;;;;;;;;;;;;23.36;51.95;99566.31;5075961;28;20371;-85
2022/08/23 05:08:10;;;;;;;;;;;;;;;23.73;51.32;99561.59;5076183;28;19916;-85
2022/08/23 05:10:35;;;;;;;;;;;;;;;23.88;51.12;99558.19;5058076;28;19920;-84
2022/08/23 05:13:00;;;;;;;;;;;;;;;24.04;50.81;99572.91;5058080;28;19917;-85
2022/08/23 05:15:25;;;;;;;;;;;;;;;24.15;50.27;99575.28;5075957;28;19917;-84
2022/08/23 05:17:51;;;;;;;;;;;;;;;24.54;49.50;99570.78;5058406;28;20019;-84
2022/08/23 05:20:16;;;;;;;;;;;;;;;24.52;48.54;99569.69;5075943;28;19916;-84
2022/08/23 05:22:42;;;;;;;;;;;;;;;24.43;48.55;99573.31;5057930;28;19963;-84
2022/08/23 05:25:07;;;;;;;;;;;;;;;24.62;48.94;99565.56;5057850;28;19964;-84
2022/08/23 05:27:33;;;;;;;;;;;;;;;24.39;49.13;99577.56;5057816;28;19917;-84
2022/08/23 05:29:58;;;;;;;;;;;;;;;24.19;48.95;99581.63;5075679;28;19927;-84
2022/08/23 05:32:23;;;;;;;;;;;;;;;23.97;49.17;99580.91;5076292;28;19923;-84
2022/08/23 05:34:49;;;;;;;;;;;;;;;23.85;49.96;99574.09;5076172;28;19920;-84
2022/08/23 05:37:14;;;;;;;;;;;;;;;23.80;50.40;99577.56;5057593;28;19943;-85
2022/08/23 05:39:40;;;;;;;;;;;;;;;23.67;50.63;99585.41;5075895;28;19917;-84
2022/08/23 05:42:07;;;;;;;;;;;;;;;23.32;52.30;99588.34;5057768;28;19962;-84
2022/08/23 05:44:35;;;;;;;;;;;;;;;23.97;50.44;99587.41;5075138;28;19963;-84
2022/08/23 05:47:00;;;;;;;;;;;;;;;25.14;48.25;99594.97;5074720;28;19955;-84
2022/08/23 05:49:26;;;;;;;;;;;;;;;25.10;48.90;99594.31;5075036;28;20263;-84
2022/08/23 05:51:51;;;;;;;;;;;;;;;26.02;46.97;99591.97;5074564;28;20290;-84
2022/08/23 05:54:16;;;;;;;;;;;;;;;27.04;45.50;99589.16;5057958;28;19923;-84
2022/08/23 05:56:42;;;;;;;;;;;;;;;27.28;43.73;99598.47;5073937;28;19928;-84
2022/08/23 05:59:09;;;;;;;;;;;;;;;27.77;43.42;99599.81;5073521;28;20464;-84
2022/08/23 06:01:35;;;;;;;;;;;;;;;28.39;41.45;99604.41;5075439;28;19917;-84
2022/08/23 06:04:05;;;;;;;;;;;;;;;28.97;38.19;99601.72;5057444;28;19916;-83
2022/08/23 06:06:31;;;;;;;;;;;;;;;29.24;38.31;99609.03;5075363;28;19916;-83
2022/08/23 06:08:59;;;;;;;;;;;;;;;29.43;36.99;99612.34;5073864;28;19923;-83
2022/08/23 06:11:26;;;;;;;;;;;;;;;29.54;37.61;99609.59;5056989;28;20358;-83
2022/08/23 06:13:56;;;;;;;;;;;;;;;29.80;35.07;99609.56;5075123;28;20385;-84
2022/08/23 06:16:34;;;;;;;;;;;;;;;30.06;35.56;99603.75;5057046;28;20252;-83
2022/08/23 06:19:03;;;;;;;;;;;;;;;30.12;35.88;99613.19;5056958;28;20282;-83
2022/08/23 06:21:29;;;;;;;;;;;;;;;30.01;34.99;99613.09;5056993;28;19923;-83
2022/08/23 06:23:55;;;;;;;;;;;;;;;30.15;34.71;99617.91;5057050;28;19916;-83
2022/08/23 06:26:22;;;;;;;;;;;;;;;30.65;34.53;99613.72;5056548;28;20399;-83
2022/08/23 06:28:49;;;;;;;;;;;;;;;30.37;35.23;99613.59;5057214;28;19917;-83
2022/08/23 06:31:14;;;;;;;;;;;;;;;30.25;35.23;99613.50;5074993;28;19970;-83
2022/08/23 06:33:41;;;;;;;;;;;;;;;30.18;35.30;99611.13;5056820;28;19916;-83
2022/08/23 06:36:08;;;;;;;;;;;;;;;30.33;35.52;99621.66;5056876;28;20359;-83
2022/08/23 06:38:33;;;;;;;;;;;;;;;30.62;34.19;99617.63;5056428;28;19917;-83
2022/08/23 06:41:00;;;;;;;;;;;;;;;30.67;34.93;99629.13;5056520;28;20018;-83
2022/08/23 06:43:26;;;;;;;;;;;;;;;31.22;34.87;99622.03;5056872;28;19921;-83
2022/08/23 06:45:52;;;;;;;;;;;;;;;31.68;34.37;99629.41;5056661;28;19916;-83
2022/08/23 06:48:17;;;;;;;;;;;;;;;32.11;33.37;99623.38;5056194;28;19917;-83
2022/08/23 06:50:42;;;;;;;;;;;;;;;32.24;32.34;99617.88;5056046;28;19959;-83
2022/08/23 06:53:08;;;;;;;;;;;;;;;32.81;31.80;99624.22;5056460;28;20016;-83
2022/08/23 06:55:33;;;;;;;;;;;;;;;32.62;32.09;99629.81;5056088;28;19916;-82
2022/08/23 06:57:58;;;;;;;;;;;;;;;32.89;31.68;99630.25;5072646;28;19920;-82
2022/08/23 07:00:24;;;;;;;;;;;;;;;32.90;31.14;99634.69;5056557;28;19916;-83
2022/08/23 07:02:49;;;;;;;;;;;;;;;33.13;31.37;99624.59;5056002;28;19924;-81
2022/08/23 07:05:16;;;;;;;;;;;;;;;33.03;30.39;99629.13;5072895;28;19940;-81
2022/08/23 07:07:41;;;;;;;;;;;;;;;33.10;31.44;99634.31;5056118;28;20003;-82
2022/08/23 07:10:06;;;;;;;;;;;;;;;33.63;30.14;99623.50;5055746;28;19950;-82
2022/08/23 07:12:32;;;;;;;;;;;;;;;34.14;29.17;99621.75;5071909;28;19917;-81
2022/08/23 07:14:57;;;;;;;;;;;;;;;33.76;28.08;99623.63;5056043;28;19928;-82
2022/08/23 07:17:24;;;;;;;;;;;;;;;33.66;28.55;99621.63;5055877;28;20003;-81
2022/08/23 07:19:49;;;;;;;;;;;;;;;34.23;26.76;99629.25;5055871;28;19958;-81
2022/08/23 07:22:15;;;;;;;;;;;;;;;33.62;26.83;99631.38;5074431;28;19917;-81
2022/08/23 07:24:41;;;;;;;;;;;;;;;33.22;27.36;99630.03;5056397;28;19916;-81
2022/08/23 07:27:08;;;;;;;;;;;;;;;33.65;27.40;99626.63;5056238;28;20002;-82
2022/08/23 07:29:34;;;;;;;;;;;;;;;33.08;29.42;99631.19;5055808;28;19928;-81
2022/08/23 07:32:00;;;;;;;;;;;;;;;32.95;29.64;99633.88;5073597;28;20500;-80
2022/08/23 07:34:28;;;;;;;;;;;;;;;32.90;27.77;99634.69;5074001;28;19943;-80
2022/08/23 07:36:53;;;;;;;;;;;;;;;32.93;28.49;99636.53;5055920;28;20248;-80
2022/08/23 07:39:19;;;;;;;;;;;;;;;33.72;27.75;99637.59;5055682;28;20022;-81
2022/08/23 07:41:45;;;;;;;;;;;;;;;32.91;28.22;99647.78;5055637;28;20094;-81
2022/08/23 07:44:11;;;;;;;;;;;;;;;32.86;28.92;99644.34;5055527;28;20013;-80
2022/08/23 07:46:39;;;;;;;;;;;;;;;32.82;28.17;99638.09;5056381;28;19921;-80
2022/08/23 07:49:04;;;;;;;;;;;;;;;32.78;29.08;99642.56;5056407;28;19916;-80
2022/08/23 07:51:31;;;;;;;;;;;;;;;32.55;29.72;99648.44;5055890;28;20377;-80
2022/08/23 07:53:56;;;;;;;;;;;;;;;33.05;29.24;99649.53;5056315;28;19920;-80
2022/08/23 07:56:22;;;;;;;;;;;;;;;32.89;28.83;99650.41;5055791;28;20329;-80
2022/08/23 07:58:48;;;;;;;;;;;;;;;32.44;28.96;99659.16;5055166;28;19921;-80
2022/08/23 08:01:19;;;;;;;;;;;;;;;32.75;28.59;99650.16;5055364;28;19924;-80
2022/08/23 08:03:45;;;;;;;;;;;;;;;32.97;28.86;99654.28;5073424;28;19916;-80
2022/08/23 08:06:12;;;;;;;;;;;;;;;32.72;29.41;99657.00;5056069;28;20449;-81
2022/08/23 08:08:39;;;;;;;;;;;;;;;32.88;29.27;99657.47;5055563;28;19939;-81
2022/08/23 08:11:05;;;;;;;;;;;;;;;33.08;29.34;99660.81;5055362;28;20329;-80
2022/08/23 08:13:31;;;;;;;;;;;;;;;32.70;28.76;99658.81;5054982;28;19916;-80
2022/08/23 08:15:57;;;;;;;;;;;;;;;32.98;28.45;99664.53;5055582;28;20122;-81
2022/08/23 08:18:22;;;;;;;;;;;;;;;33.23;28.56;99662.53;5055570;28;19917;-80
2022/08/23 08:20:47;;;;;;;;;;;;;;;34.04;27.25;99660.94;5055411;28;19916;-81
2022/08/23 08:23:13;;;;;;;;;;;;;;;33.55;27.63;99662.88;5056113;28;20017;-80
2022/08/23 08:25:38;;;;;;;;;;;;;;;33.14;29.35;99660.78;5059012;28;19917;-80
2022/08/23 08:28:03;;;;;;;;;;;;;;;32.12;30.04;99659.50;5058987;28;20394;-80
2022/08/23 08:30:29;;;;;;;;;;;;;;;33.11;28.97;99653.16;5059721;28;20294;-80
2022/08/23 08:32:55;;;;;;;;;;;;;;;34.16;27.70;99652.94;5061240;28;19920;-81
2022/08/23 08:35:20;;;;;;;;;;;;;;;34.16;27.48;99658.72;5059244;28;20311;-81
2022/08/23 08:37:46;;;;;;;;;;;;;;;33.29;28.53;99658.31;5059283;28;19916;-81
2022/08/23 08:40:11;;;;;;;;;;;;;;;32.88;29.22;99654.59;5058529;28;19920;-81
2022/08/23 08:42:36;;;;;;;;;;;;;;;32.60;29.82;99655.47;5058570;28;19920;-80
2022/08/23 08:45:14;;;;;;;;;;;;;;;32.92;29.70;99647.25;5062267;28;19924;-81
2022/08/23 08:47:48;;;;;;;;;;;;;;;32.39;29.48;99654.25;5059972;28;19924;-80
2022/08/23 08:50:37;;;;;;;;;;;;;;;33.00;28.47;99650.34;5058399;28;19916;-81
2022/08/23 08:53:12;;;;;;;;;;;;;;;33.93;28.40;99654.44;5052641;28;19916;-80
2022/08/23 08:55:45;;;;;;;;;;;;;;;34.55;26.60;99654.66;5076541;28;19939;-81
2022/08/23 08:58:14;;;;;;;;;;;;;;;35.59;26.00;99660.94;5058607;28;19958;-80
2022/08/23 09:00:39;;;;;;;;;;;;;;;34.71;26.67;99650.78;5058193;28;19928;-80
2022/08/23 09:03:14;;;;;;;;;;;;;;;34.43;27.14;99647.44;5058225;28;19916;-79
2022/08/23 09:05:47;;;;;;;;;;;;;;;33.89;27.55;99652.66;5058138;28;19920;-80
2022/08/23 09:08:25;;;;;;;;;;;;;;;35.16;25.76;99659.69;5058948;28;19917;-80
2022/08/23 09:10:52;;;;;;;;;;;;;;;36.11;24.75;99668.22;5058391;28;20381;-80
2022/08/23 09:13:18;;;;;;;;;;;;;;;35.76;25.06;99663.56;5058598;28;20011;-80
2022/08/23 09:15:53;;;;;;;;;;;;;;;36.61;24.06;99669.44;5058659;28;20374;-80
2022/08/23 09:18:19;;;;;;;;;;;;;;;36.54;24.52;99664.28;5058866;28;20283;-79
2022/08/23 09:20:47;;;;;;;;;;;;;;;35.86;24.68;99665.47;5058161;28;20359;-79
2022/08/23 09:23:21;;;;;;;;;;;;;;;35.69;25.63;99656.31;5057248;28;19928;-79
2022/08/23 09:25:53;;;;;;;;;;;;;;;36.03;25.18;99655.75;5057619;28;19917;-79
2022/08/23 09:28:19;;;;;;;;;;;;;;;36.92;24.03;99659.84;5057724;28;19924;-79
2022/08/23 09:30:46;;;;;;;;;;;;;;;37.12;23.73;99666.25;5076354;28;19916;-81
2022/08/23 09:33:19;;;;;;;;;;;;;;;37.24;23.77;99670.50;5076693;28;20472;-81
2022/08/23 09:36:02;;;;;;;;;;;;;;;36.73;24.14;99674.44;5057683;28;19966;-81
2022/08/23 09:38:28;;;;;;;;;;;;;;;36.23;24.36;99675.38;5058430;28;20358;-83
2022/08/23 09:40:54;;;;;;;;;;;;;;;35.52;26.30;99664.44;5057885;28;19999;-80
2022/08/23 09:43:24;;;;;;;;;;;;;;;34.39;28.06;99665.81;5058879;28;19952;-81
2022/08/23 09:45:50;;;;;;;;;;;;;;;34.61;28.50;99670.59;5077635;28;20323;-82
2022/08/23 09:48:31;;;;;;;;;;;;;;;34.87;28.07;99663.47;5062837;28;19924;-81
2022/08/23 09:51:04;;;;;;;;;;;;;;;35.85;26.54;99668.91;5058560;28;20421;-82
2022/08/23 09:53:31;;;;;;;;;;;;;;;36.11;26.43;99665.31;5058133;28;19921;-82
2022/08/23 09:56:10;;;;;;;;;;;;;;;36.13;26.46;99662.69;5058198;28;19916;-82
2022/08/23 09:58:37;;;;;;;;;;;;;;;36.13;27.28;99672.13;5057983;28;19951;-81
2022/08/23 10:01:21;;;;;;;;;;;;;;;36.24;26.95;99673.28;5058581;28;20003;-81
2022/08/23 10:04:04;;;;;;;;;;;;;;;35.77;26.36;99668.78;5076273;28;20003;-82
2022/08/23 10:06:33;;;;;;;;;;;;;;;33.56;30.33;99671.00;5058924;28;19963;-81
2022/08/23 10:09:03;;;;;;;;;;;;;;;33.56;29.73;99661.59;5058927;28;19920;-82
2022/08/23 10:11:43;;;;;;;;;;;;;;;33.42;30.70;99660.63;5059301;28;19978;-82
2022/08/23 10:14:10;;;;;;;;;;;;;;;33.40;31.27;99657.47;5058773;28;19917;-82
2022/08/23 10:16:35;;;;;;;;;;;;;;;32.64;31.95;99655.97;5058335;28;20378;-81
2022/08/23 10:19:19;;;;;;;;;;;;;;;32.44;31.70;99653.41;5056910;28;20003;-76
2022/08/23 10:21:50;;;;;;;;;;;;;;;32.27;32.53;99657.09;5056763;28;20371;-76
2022/08/23 10:24:22;;;;;;;;;;;;;;;32.72;32.97;99662.75;5074297;28;19983;-77
2022/08/23 10:30:12;;;;;;;;;;;;;;;33.09;32.23;99664.47;5027760;28;19986;-75
2022/08/23 10:32:45;;;;;;;;;;;;;;;31.97;33.95;99664.72;5057036;28;19924;-77
2022/08/23 10:35:10;;;;;;;;;;;;;;;31.71;35.17;99662.09;5056252;28;19921;-76
2022/08/23 10:37:35;;;;;;;;;;;;;;;31.52;34.88;99658.94;5056919;28;19965;-76
2022/08/23 10:40:19;;;;;;;;;;;;;;;31.65;34.26;99662.09;5056827;28;19917;-77
2022/08/23 10:42:55;;;;;;;;;;;;;;;31.39;35.32;99665.19;5056350;28;19916;-76
2022/08/23 10:45:24;;;;;;;;;;;;;;;31.27;35.36;99664.38;5055899;28;20026;-75
2022/08/23 10:48:02;;;;;;;;;;;;;;;31.57;35.52;99663.91;5055978;28;19921;-75
2022/08/23 10:50:29;;;;;;;;;;;;;;;31.56;35.25;99663.13;5056089;28;20413;-75
2022/08/23 10:53:04;;;;;;;;;;;;;;;31.73;34.63;99660.25;5073948;28;20372;-75
2022/08/23 10:55:42;;;;;;;;;;;;;;;31.66;34.29;99666.53;5056579;28;19920;-75
2022/08/23 10:58:12;;;;;;;;;;;;;;;31.19;36.70;99656.75;5057287;28;19971;-75
2022/08/23 11:00:38;;;;;;;;;;;;;;;31.13;37.37;99651.00;5056353;28;19939;-74
2022/08/23 11:03:13;;;;;;;;;;;;;;;31.06;37.08;99653.59;5056484;28;19971;-75
2022/08/23 11:05:39;;;;;;;;;;;;;;;31.41;37.09;99662.56;5056881;28;19951;-74
2022/08/23 11:08:10;;;;;;;;;;;;;;;31.72;36.16;99644.31;5056279;28;19923;-75
2022/08/23 11:10:38;;;;;;;;;;;;;;;32.20;35.03;99651.88;5056182;28;19916;-74
2022/08/23 11:13:17;;;;;;;;;;;;;;;32.35;35.23;99651.63;5056469;28;19924;-74
2022/08/23 11:15:56;;;;;;;;;;;;;;;32.54;35.47;99648.94;5056694;28;19956;-74
2022/08/23 11:18:33;;;;;;;;;;;;;;;32.93;34.57;99648.03;5073605;28;20357;-75
2022/08/23 11:21:01;;;;;;;;;;;;;;;33.54;33.09;99653.44;5055861;28;19921;-75
2022/08/23 11:23:40;;;;;;;;;;;;;;;33.88;32.36;99647.41;5055777;28;19997;-75
2022/08/23 11:26:07;;;;;;;;;;;;;;;34.04;32.02;99648.63;5074386;28;19917;-75
2022/08/23 11:28:43;;;;;;;;;;;;;;;34.05;31.65;99639.41;5056076;28;19917;-75
2022/08/23 11:31:28;;;;;;;;;;;;;;;34.34;31.54;99646.44;5055774;28;19924;-75
2022/08/23 11:34:05;;;;;;;;;;;;;;;33.53;34.36;99642.44;5055817;28;19978;-75
2022/08/23 11:36:31;;;;;;;;;;;;;;;33.18;34.37;99634.53;5056022;28;20380;-75
2022/08/23 11:38:56;;;;;;;;;;;;;;;33.06;34.72;99634.59;5055680;28;19916;-75
2022/08/23 11:41:26;;;;;;;;;;;;;;;33.25;35.34;99637.63;5056308;28;19922;-75
2022/08/23 11:43:54;;;;;;;;;;;;;;;33.33;35.57;99632.84;5055951;28;19916;-75
2022/08/23 11:46:26;;;;;;;;;;;;;;;33.88;34.91;99633.78;5055594;28;19926;-75
2022/08/23 11:49:00;;;;;;;;;;;;;;;33.68;35.24;99630.53;5055580;28;20371;-76
2022/08/23 11:51:26;;;;;;;;;;;;;;;33.62;34.54;99633.47;5055973;28;19917;-75
2022/08/23 11:53:52;;;;;;;;;;;;;;;33.75;33.79;99629.94;5055509;28;19917;-75
2022/08/23 11:56:36;;;;;;;;;;;;;;;33.78;33.08;99620.22;5055397;28;19916;-75
2022/08/23 11:59:14;;;;;;;;;;;;;;;33.55;33.11;99617.50;5059515;28;19988;-75
2022/08/23 12:01:39;;;;;;;;;;;;;;;33.46;33.64;99622.84;5076152;28;19928;-75
2022/08/23 12:04:13;;;;;;;;;;;;;;;34.09;32.24;99625.47;5076147;28;19916;-76
2022/08/23 12:06:47;;;;;;;;;;;;;;;34.44;31.47;99620.09;5076842;28;20358;-76
2022/08/23 12:09:12;;;;;;;;;;;;;;;34.88;30.51;99627.44;5076977;28;19923;-76
2022/08/23 12:11:56;;;;;;;;;;;;;;;34.54;30.33;99607.66;5075892;28;20003;-76
2022/08/23 12:14:31;;;;;;;;;;;;;;;35.06;30.99;99612.28;5077731;28;19995;-76
2022/08/23 12:17:00;;;;;;;;;;;;;;;34.85;32.59;99609.13;5077071;28;19917;-76
2022/08/23 12:19:39;;;;;;;;;;;;;;;34.38;34.34;99599.97;5075796;28;19916;-76
2022/08/23 12:22:08;;;;;;;;;;;;;;;33.47;37.35;99605.00;5075655;28;19924;-76
2022/08/23 12:24:40;;;;;;;;;;;;;;;33.24;38.48;99609.31;5075666;28;19917;-76
2022/08/23 12:27:18;;;;;;;;;;;;;;;33.03;39.41;99598.22;5075595;28;19916;-76
2022/08/23 12:30:02;;;;;;;;;;;;;;;33.26;39.27;99601.72;5075556;28;19916;-76
2022/08/23 12:32:43;;;;;;;;;;;;;;;33.08;38.83;99593.75;5075537;28;19916;-76
2022/08/23 12:35:27;;;;;;;;;;;;;;;32.93;38.81;99596.19;5075935;28;19956;-76
2022/08/23 12:37:58;;;;;;;;;;;;;;;32.60;39.92;99589.25;5075693;28;19923;-75
2022/08/23 12:40:33;;;;;;;;;;;;;;;32.43;40.26;99588.50;5074969;28;19916;-75
2022/08/23 12:43:03;;;;;;;;;;;;;;;32.20;40.78;99590.66;5075003;28;19924;-76
2022/08/23 12:45:35;;;;;;;;;;;;;;;32.12;40.48;99581.00;5075335;28;19946;-76
2022/08/23 12:48:01;;;;;;;;;;;;;;;31.86;41.48;99575.56;5076452;28;20007;-76
2022/08/23 12:50:33;;;;;;;;;;;;;;;31.99;41.26;99578.69;5075355;28;19927;-75
2022/08/23 12:53:07;;;;;;;;;;;;;;;31.87;41.41;99577.91;5075746;28;19920;-75
2022/08/23 12:55:34;;;;;;;;;;;;;;;31.44;40.56;99574.53;5075114;28;19916;-75
2022/08/23 12:57:59;;;;;;;;;;;;;;;31.84;38.98;99575.31;5074959;28;19927;-75
2022/08/23 13:00:37;;;;;;;;;;;;;;;31.53;38.71;99571.38;5076387;28;19916;-75
2022/08/23 13:03:11;;;;;;;;;;;;;;;31.54;39.63;99572.97;5058555;28;19922;-75
2022/08/23 13:05:42;;;;;;;;;;;;;;;31.65;39.18;99561.44;5058269;28;19917;-75